createdAt,value
2023-05-04T00:00:37.335Z,36.8170
2023-05-04T00:01:39.468Z,36.8150
2023-05-04T00:02:41.742Z,36.8320
2023-05-04T00:03:43.948Z,36.8150
2023-05-04T00:04:46.082Z,36.8210
2023-05-04T00:05:48.266Z,36.8020
2023-05-04T00:06:50.407Z,36.7960
2023-05-04T00:07:52.574Z,36.7940
2023-05-04T00:08:54.789Z,36.8580
2023-05-04T00:09:56.979Z,36.8180
2023-05-04T00:10:59.217Z,36.8580
2023-05-04T00:12:01.386Z,36.8980
2023-05-04T00:13:03.638Z,36.8800
2023-05-04T00:14:05.783Z,36.8450
2023-05-04T00:15:07.941Z,36.8240
2023-05-04T00:16:10.994Z,36.8240
2023-05-04T00:17:12.315Z,36.8510
2023-05-04T00:18:14.492Z,36.8510
2023-05-04T00:19:16.684Z,36.8660
2023-05-04T00:20:18.882Z,36.8490
2023-05-04T00:21:21.083Z,36.7710
2023-05-04T00:22:23.249Z,36.7500
2023-05-04T00:23:25.449Z,36.7810
2023-05-04T00:24:27.609Z,36.8020
2023-05-04T00:25:29.705Z,36.7970
2023-05-04T00:26:31.892Z,36.7660
2023-05-04T00:27:34.074Z,36.7840
2023-05-04T00:28:36.180Z,36.7930
2023-05-04T00:29:38.378Z,36.8180
2023-05-04T00:30:40.550Z,36.8240
2023-05-04T00:31:42.914Z,36.8350
2023-05-04T00:32:44.985Z,36.8120
2023-05-04T00:33:47.113Z,36.7930
2023-05-04T00:34:49.265Z,36.8060
2023-05-04T00:35:51.421Z,36.7960
2023-05-04T00:36:53.548Z,36.8020
2023-05-04T00:37:53.596Z,36.7830
2023-05-04T00:38:55.793Z,36.7660
2023-05-04T00:39:57.991Z,36.7290
2023-05-04T00:41:00.203Z,36.7430
2023-05-04T00:42:02.450Z,36.7180
2023-05-04T00:43:04.792Z,36.6950
2023-05-04T00:44:06.909Z,36.7010
2023-05-04T00:45:09.163Z,36.6580
2023-05-04T00:46:11.425Z,36.6830
2023-05-04T00:48:26.768Z,36.7520
2023-05-04T00:49:28.933Z,36.6880
2023-05-04T00:50:31.156Z,36.7070
2023-05-04T00:51:33.387Z,36.7150
2023-05-04T00:52:35.596Z,36.7450
2023-05-04T00:53:35.714Z,36.6970
2023-05-04T00:54:37.926Z,36.7220
2023-05-04T00:55:40.189Z,36.7090
2023-05-04T00:56:42.430Z,36.6930
2023-05-04T00:57:44.690Z,36.7060
2023-05-04T00:58:46.909Z,36.6810
2023-05-04T00:59:49.043Z,36.6760
2023-05-04T01:00:51.308Z,36.6700
2023-05-04T01:01:53.558Z,36.6640
2023-05-04T01:02:55.888Z,36.6640
2023-05-04T01:03:58.133Z,36.6580
2023-05-04T01:04:58.191Z,36.6580
2023-05-04T01:06:00.454Z,36.6610
2023-05-04T01:07:02.704Z,36.6220
2023-05-04T01:08:04.972Z,36.6260
2023-05-04T01:09:07.272Z,36.6490
2023-05-04T01:10:09.492Z,36.6550
2023-05-04T01:11:11.716Z,36.6590
2023-05-04T01:12:13.967Z,36.6650
2023-05-04T01:13:16.232Z,36.5900
2023-05-04T01:14:16.340Z,36.5500
2023-05-04T01:15:18.509Z,36.5560
2023-05-04T01:16:20.838Z,36.5830
2023-05-04T01:17:23.003Z,36.5590
2023-05-04T01:18:25.204Z,36.5090
2023-05-04T01:19:27.440Z,36.5300
2023-05-04T01:20:29.576Z,36.4610
2023-05-04T01:21:31.799Z,36.4330
2023-05-04T01:22:33.971Z,36.4880
2023-05-04T01:23:36.140Z,36.5040
2023-05-04T01:24:38.339Z,36.5360
2023-05-04T01:25:40.524Z,36.5080
2023-05-04T01:26:40.555Z,36.5250
2023-05-04T01:27:42.731Z,36.5460
2023-05-04T01:28:44.917Z,36.5500
2023-05-04T01:29:47.181Z,36.5500
2023-05-04T01:30:49.350Z,36.5440
2023-05-04T01:31:51.505Z,36.5260
2023-05-04T01:32:53.764Z,36.5090
2023-05-04T01:33:55.926Z,36.5140
2023-05-04T01:34:58.274Z,36.5090
2023-05-04T01:36:00.367Z,36.5200
2023-05-04T01:37:02.603Z,36.5160
2023-05-04T01:38:04.844Z,36.5100
2023-05-04T01:39:07.117Z,36.4740
2023-05-04T01:40:09.401Z,36.5210
2023-05-04T01:41:09.485Z,36.4740
2023-05-04T01:42:11.697Z,36.4770
2023-05-04T01:43:13.961Z,36.5030
2023-05-04T01:44:16.201Z,36.4880
2023-05-04T01:45:18.508Z,36.4460
2023-05-04T01:46:20.706Z,36.4730
2023-05-04T01:47:23.003Z,36.4450
2023-05-04T01:48:25.627Z,36.4680
2023-05-04T01:49:27.431Z,36.4830
2023-05-04T01:50:29.746Z,36.4560
2023-05-04T01:51:31.819Z,36.4770
2023-05-04T01:52:31.998Z,36.4600
2023-05-04T01:53:34.165Z,36.4510
2023-05-04T01:54:36.420Z,36.4780
2023-05-04T01:55:38.662Z,36.4840
2023-05-04T01:56:40.890Z,36.4550
2023-05-04T01:57:43.174Z,36.4610
2023-05-04T01:58:44.317Z,36.4980
2023-05-04T01:59:46.584Z,36.6310
2023-05-04T02:00:48.871Z,36.7110
2023-05-04T02:01:51.135Z,36.7880
2023-05-04T02:02:53.377Z,36.8270
2023-05-04T02:03:55.619Z,36.8540
2023-05-04T02:04:55.663Z,36.8770
2023-05-04T02:05:57.982Z,36.8330
2023-05-04T02:07:00.167Z,36.8360
2023-05-04T02:08:02.408Z,36.8460
2023-05-04T02:09:04.607Z,36.8460
2023-05-04T02:10:06.952Z,36.8640
2023-05-04T02:11:09.098Z,36.8660
2023-05-04T02:12:11.291Z,36.8850
2023-05-04T02:13:13.592Z,36.9140
2023-05-04T02:14:15.769Z,36.9270
2023-05-04T02:15:18.005Z,36.9030
2023-05-04T02:16:20.374Z,36.9080
2023-05-04T02:17:22.463Z,36.8850
2023-05-04T02:18:22.566Z,36.9070
2023-05-04T02:19:24.838Z,36.8950
2023-05-04T02:20:27.113Z,36.8820
2023-05-04T02:21:29.419Z,36.8820
2023-05-04T02:22:29.534Z,36.8980
2023-05-04T02:23:31.814Z,36.8650
2023-05-04T02:24:34.104Z,36.8570
2023-05-04T02:26:27.940Z,36.7420
2023-05-04T02:27:30.085Z,36.6020
2023-05-04T02:28:32.280Z,36.5210
2023-05-04T02:29:32.375Z,36.4850
2023-05-04T02:30:34.619Z,36.4260
2023-05-04T02:31:36.941Z,36.3830
2023-05-04T02:32:39.179Z,36.3840
2023-05-04T02:33:41.324Z,36.3780
2023-05-04T02:34:43.487Z,36.3550
2023-05-04T02:35:45.700Z,36.3650
2023-05-04T02:36:47.931Z,36.3550
2023-05-04T02:37:50.178Z,36.2800
2023-05-04T02:38:52.318Z,36.2610
2023-05-04T02:39:54.565Z,36.2680
2023-05-04T02:40:56.827Z,36.2970
2023-05-04T02:43:27.236Z,36.3570
2023-05-04T02:44:29.346Z,36.3460
2023-05-04T02:45:31.620Z,36.3420
2023-05-04T02:46:33.830Z,36.3020
2023-05-04T02:47:36.115Z,36.3110
2023-05-04T02:48:38.421Z,36.3440
2023-05-04T02:49:40.515Z,36.3230
2023-05-04T02:50:42.764Z,36.2710
2023-05-04T02:51:44.960Z,36.2710
2023-05-04T02:52:47.183Z,36.2980
2023-05-04T02:53:49.391Z,36.2930
2023-05-04T02:54:53.146Z,36.2970
2023-05-04T02:55:51.747Z,36.3250
2023-05-04T02:56:53.954Z,36.2980
2023-05-04T02:57:56.168Z,36.2640
2023-05-04T02:58:58.394Z,36.2470
2023-05-04T03:00:00.580Z,36.2610
2023-05-04T03:01:02.811Z,36.2740
2023-05-04T03:02:04.938Z,36.2610
2023-05-04T03:03:07.206Z,36.2500
2023-05-04T03:04:09.374Z,36.2610
2023-05-04T03:05:11.547Z,36.2500
2023-05-04T03:06:13.745Z,36.2270
2023-05-04T03:07:15.904Z,36.2670
2023-05-04T03:08:18.051Z,36.2850
2023-05-04T03:09:20.258Z,36.2600
2023-05-04T03:10:22.408Z,36.2550
2023-05-04T03:11:24.598Z,36.2210
2023-05-04T03:12:26.773Z,36.2440
2023-05-04T03:13:29.006Z,36.2500
2023-05-04T03:14:31.177Z,36.2380
2023-05-04T03:15:31.222Z,36.2320
2023-05-04T03:16:33.486Z,36.1790
2023-05-04T03:17:35.671Z,36.1740
2023-05-04T03:18:37.902Z,36.2040
2023-05-04T03:19:40.122Z,36.2730
2023-05-04T03:20:42.300Z,36.2730
2023-05-04T03:21:44.516Z,36.3530
2023-05-04T03:22:46.717Z,36.3620
2023-05-04T03:23:48.925Z,36.3850
2023-05-04T03:24:51.130Z,36.4170
2023-05-04T03:25:53.318Z,36.4190
2023-05-04T03:26:55.530Z,36.4020
2023-05-04T03:27:57.716Z,36.3900
2023-05-04T03:28:59.914Z,36.3900
2023-05-04T03:30:02.256Z,36.3620
2023-05-04T03:31:04.259Z,36.3670
2023-05-04T03:32:06.604Z,36.3690
2023-05-04T03:33:06.572Z,36.4070
2023-05-04T03:34:08.736Z,36.3790
2023-05-04T03:35:10.935Z,36.3780
2023-05-04T03:36:13.067Z,36.3790
2023-05-04T03:37:15.274Z,36.3800
2023-05-04T03:38:17.462Z,36.3460
2023-05-04T03:39:19.687Z,36.3490
2023-05-04T03:40:21.911Z,36.3730
2023-05-04T03:41:24.079Z,36.3140
2023-05-04T03:42:26.231Z,36.2570
2023-05-04T03:43:28.423Z,36.2440
2023-05-04T03:44:30.635Z,36.1970
2023-05-04T03:45:32.790Z,36.1740
2023-05-04T03:46:34.881Z,36.2080
2023-05-04T03:47:37.051Z,36.1630
2023-05-04T03:48:39.144Z,36.1680
2023-05-04T03:49:41.446Z,36.1650
2023-05-04T03:50:43.565Z,36.2700
2023-05-04T03:51:45.719Z,36.2990
2023-05-04T03:52:47.915Z,36.3350
2023-05-04T03:53:47.996Z,36.3270
2023-05-04T03:54:50.190Z,36.3540
2023-05-04T03:55:52.410Z,36.3620
2023-05-04T03:56:54.581Z,36.3900
2023-05-04T03:57:56.808Z,36.4400
2023-05-04T03:58:59.037Z,36.5140
2023-05-04T04:00:01.288Z,36.5960
2023-05-04T04:01:03.549Z,36.6390
2023-05-04T04:02:05.776Z,36.6450
2023-05-04T04:03:08.116Z,36.6960
2023-05-04T04:04:10.230Z,36.7070
2023-05-04T04:05:12.483Z,36.7240
2023-05-04T04:06:14.675Z,36.7400
2023-05-04T04:07:14.708Z,36.7010
2023-05-04T04:08:16.936Z,36.6800
2023-05-04T04:10:32.143Z,36.7820
2023-05-04T04:11:34.261Z,36.8050
2023-05-04T04:12:36.395Z,36.7950
2023-05-04T04:13:38.548Z,36.7660
2023-05-04T04:14:40.733Z,36.8160
2023-05-04T04:15:42.965Z,36.8440
2023-05-04T04:16:45.167Z,36.8980
2023-05-04T04:17:47.380Z,36.9340
2023-05-04T04:18:49.576Z,36.9610
2023-05-04T04:19:51.818Z,36.9780
2023-05-04T04:20:54.065Z,36.9620
2023-05-04T04:21:56.329Z,36.9570
2023-05-04T04:22:58.550Z,36.9350
2023-05-04T04:24:00.753Z,36.9570
2023-05-04T04:25:02.947Z,36.9680
2023-05-04T04:26:02.985Z,36.9740
2023-05-04T04:27:05.203Z,36.9780
2023-05-04T04:28:07.342Z,36.9740
2023-05-04T04:29:09.579Z,36.9660
2023-05-04T04:30:11.831Z,36.9740
2023-05-04T04:31:14.044Z,36.9740
2023-05-04T04:32:16.255Z,36.9890
2023-05-04T04:33:18.469Z,36.9520
2023-05-04T04:34:20.686Z,36.8240
2023-05-04T04:35:22.891Z,36.7350
2023-05-04T04:36:25.186Z,36.5560
2023-05-04T04:37:27.451Z,36.5670
2023-05-04T04:38:29.712Z,36.6470
2023-05-04T04:39:29.838Z,36.6810
2023-05-04T04:40:32.068Z,36.6990
2023-05-04T04:41:34.334Z,36.6720
2023-05-04T04:42:36.633Z,36.6810
2023-05-04T04:43:38.834Z,36.6810
2023-05-04T04:44:41.113Z,36.6870
2023-05-04T04:45:43.373Z,35.7970
2023-05-04T04:46:43.617Z,34.2510
2023-05-04T04:47:45.952Z,34.3950
2023-05-04T04:48:48.211Z,35.1830
2023-05-04T04:49:50.525Z,36.2190
2023-05-04T04:50:52.843Z,36.8460
2023-05-04T04:51:55.202Z,36.6520
2023-05-04T04:52:55.413Z,36.5270
2023-05-04T04:53:57.593Z,36.3370
2023-05-04T04:54:59.878Z,36.3780
2023-05-04T04:56:02.163Z,36.5040
2023-05-04T04:57:04.373Z,36.5640
2023-05-04T04:58:06.658Z,36.4470
2023-05-04T04:59:08.912Z,36.4000
2023-05-04T05:00:11.180Z,36.6420
2023-05-04T05:01:11.347Z,36.9480
2023-05-04T05:02:13.609Z,37.3210
2023-05-04T05:03:16.037Z,38.0700
2023-05-04T05:04:18.265Z,38.2220
2023-05-04T05:05:20.586Z,38.2300
2023-05-04T05:06:22.866Z,38.0910
2023-05-04T05:07:25.196Z,37.9680
2023-05-04T05:08:25.413Z,37.7850
2023-05-04T05:09:27.611Z,37.7600
2023-05-04T05:10:29.871Z,37.5520
2023-05-04T05:11:32.148Z,37.3490
2023-05-04T05:12:34.412Z,37.1740
2023-05-04T05:13:36.648Z,36.9700
2023-05-04T05:14:38.885Z,36.8160
2023-05-04T05:15:41.181Z,36.6170
2023-05-04T05:16:43.497Z,36.5130
2023-05-04T05:17:45.810Z,36.3920
2023-05-04T05:18:48.089Z,36.2850
2023-05-04T05:19:50.353Z,36.2040
2023-05-04T05:20:52.655Z,36.1610
2023-05-04T05:21:54.951Z,36.0920
2023-05-04T05:22:55.139Z,36.0670
2023-05-04T05:23:57.434Z,35.9950
2023-05-04T05:24:59.698Z,35.9610
2023-05-04T05:26:03.384Z,35.9570
2023-05-04T05:27:04.254Z,35.9360
2023-05-04T05:28:06.504Z,35.8700
2023-05-04T05:29:09.610Z,35.8620
2023-05-04T05:30:08.840Z,35.8220
2023-05-04T05:31:11.137Z,35.8300
2023-05-04T05:32:13.295Z,35.8450
2023-05-04T05:33:15.608Z,35.8330
2023-05-04T05:34:17.786Z,35.7720
2023-05-04T05:35:19.999Z,35.7910
2023-05-04T05:36:22.252Z,35.7790
2023-05-04T05:37:24.458Z,35.7410
2023-05-04T05:38:26.703Z,35.7630
2023-05-04T05:39:29.021Z,35.7880
2023-05-04T05:40:31.132Z,35.8330
2023-05-04T05:41:33.321Z,35.8490
2023-05-04T05:42:35.474Z,35.8390
2023-05-04T05:43:37.652Z,35.8660
2023-05-04T05:44:37.779Z,35.8330
2023-05-04T05:45:39.895Z,35.8150
2023-05-04T05:46:42.144Z,35.8270
2023-05-04T05:49:14.600Z,35.9280
2023-05-04T05:50:16.807Z,35.9560
2023-05-04T05:51:19.002Z,35.9140
2023-05-04T05:52:21.196Z,35.9250
2023-05-04T05:53:25.558Z,35.9140
2023-05-04T05:54:19.189Z,35.9670
2023-05-04T05:55:21.369Z,35.9780
2023-05-04T05:56:23.489Z,35.9780
2023-05-04T05:57:25.652Z,36.0080
2023-05-04T05:58:27.835Z,36.0140
2023-05-04T05:59:30.032Z,36.0010
2023-05-04T06:00:32.244Z,36.0100
2023-05-04T06:01:34.413Z,36.0210
2023-05-04T06:02:36.748Z,36.0270
2023-05-04T06:03:39.155Z,36.0630
2023-05-04T06:04:41.050Z,36.0330
2023-05-04T06:05:43.268Z,36.0230
2023-05-04T06:06:46.214Z,36.0860
2023-05-04T06:07:47.682Z,36.0860
2023-05-04T06:08:49.896Z,36.0910
2023-05-04T06:09:52.165Z,36.0820
2023-05-04T06:10:54.319Z,36.0660
2023-05-04T06:11:56.494Z,36.0310
2023-05-04T06:12:58.673Z,36.0550
2023-05-04T06:14:00.771Z,36.0350
2023-05-04T06:15:02.966Z,36.0410
2023-05-04T06:16:03.056Z,36.0350
2023-05-04T06:17:05.198Z,36.0950
2023-05-04T06:18:07.470Z,36.1800
2023-05-04T06:19:09.590Z,36.1690
2023-05-04T06:20:11.839Z,36.1630
2023-05-04T06:21:14.030Z,36.2090
2023-05-04T06:22:16.212Z,36.2030
2023-05-04T06:23:18.442Z,36.1820
2023-05-04T06:24:20.701Z,36.2010
2023-05-04T06:25:22.941Z,36.2220
2023-05-04T06:26:25.258Z,36.2350
2023-05-04T06:27:27.305Z,36.2350
2023-05-04T06:28:31.667Z,36.2810
2023-05-04T06:29:29.612Z,36.2410
2023-05-04T06:30:31.834Z,36.2570
2023-05-04T06:31:34.237Z,36.2510
2023-05-04T06:32:36.303Z,36.2190
2023-05-04T06:33:38.510Z,36.2400
2023-05-04T06:34:40.740Z,36.2640
2023-05-04T06:35:42.943Z,36.2510
2023-05-04T06:36:45.176Z,36.2510
2023-05-04T06:37:47.331Z,36.2760
2023-05-04T06:38:49.548Z,36.2720
2023-05-04T06:39:51.759Z,36.2550
2023-05-04T06:40:54.004Z,36.2950
2023-05-04T06:41:56.234Z,36.3040
2023-05-04T06:42:58.376Z,36.3520
2023-05-04T06:43:58.957Z,36.3800
2023-05-04T06:45:00.665Z,36.3800
2023-05-04T06:46:02.868Z,36.4160
2023-05-04T06:47:05.048Z,36.4220
2023-05-04T06:48:07.203Z,36.4330
2023-05-04T06:49:09.390Z,36.4270
2023-05-04T06:50:11.554Z,36.4180
2023-05-04T06:51:13.719Z,36.4390
2023-05-04T06:52:16.050Z,36.4650
2023-05-04T06:53:18.166Z,36.4290
2023-05-04T06:54:20.377Z,36.4270
2023-05-04T06:55:22.586Z,36.4420
2023-05-04T06:56:24.872Z,36.4610
2023-05-04T06:57:27.071Z,36.4530
2023-05-04T06:58:29.202Z,36.4530
2023-05-04T06:59:31.440Z,36.4660
2023-05-04T07:00:33.644Z,36.4810
2023-05-04T07:01:36.004Z,36.4720
2023-05-04T07:02:36.033Z,36.4660
2023-05-04T07:03:38.183Z,36.4770
2023-05-04T07:04:40.365Z,36.5040
2023-05-04T07:05:42.560Z,36.5460
2023-05-04T07:06:44.771Z,36.5030
2023-05-04T07:07:47.038Z,36.5190
2023-05-04T07:09:36.528Z,36.6260
2023-05-04T07:10:38.671Z,36.6140
2023-05-04T07:11:40.905Z,36.6280
2023-05-04T07:12:43.091Z,36.5930
2023-05-04T07:13:45.326Z,36.5890
2023-05-04T07:14:47.507Z,36.5680
2023-05-04T07:15:49.704Z,36.5720
2023-05-04T07:16:51.902Z,36.5790
2023-05-04T07:17:54.177Z,36.5670
2023-05-04T07:18:56.341Z,36.5840
2023-05-04T07:19:56.413Z,36.5730
2023-05-04T07:21:10.795Z,36.5790
2023-05-04T07:22:00.834Z,36.6330
2023-05-04T07:23:02.991Z,36.6020
2023-05-04T07:24:05.292Z,36.5770
2023-05-04T07:25:07.460Z,36.6320
2023-05-04T07:26:09.673Z,36.6250
2023-05-04T07:27:12.073Z,36.6550
2023-05-04T07:28:14.200Z,36.6470
2023-05-04T07:29:16.549Z,36.6090
2023-05-04T07:30:18.764Z,36.6250
2023-05-04T07:31:18.897Z,36.6250
2023-05-04T07:32:21.174Z,36.6250
2023-05-04T07:33:23.501Z,36.6650
2023-05-04T07:34:37.847Z,36.6590
2023-05-04T07:35:27.943Z,36.7180
2023-05-04T07:36:30.230Z,36.6890
2023-05-04T07:37:32.490Z,36.7370
2023-05-04T07:38:34.758Z,36.7120
2023-05-04T07:39:35.017Z,36.7210
2023-05-04T07:40:37.126Z,36.7080
2023-05-04T07:41:39.382Z,36.7080
2023-05-04T07:42:41.605Z,36.7000
2023-05-04T07:43:43.805Z,36.7050
2023-05-04T07:44:46.062Z,36.6940
2023-05-04T07:45:48.349Z,36.6880
2023-05-04T07:46:50.453Z,36.7170
2023-05-04T07:47:53.239Z,36.7340
2023-05-04T07:48:54.774Z,36.7230
2023-05-04T07:49:54.845Z,36.7610
2023-05-04T07:50:57.044Z,36.7910
2023-05-04T07:51:59.275Z,36.7930
2023-05-04T07:53:01.520Z,36.7640
2023-05-04T07:54:01.651Z,36.7930
2023-05-04T07:55:03.945Z,36.8020
2023-05-04T07:56:06.188Z,36.8350
2023-05-04T07:57:08.422Z,36.8170
2023-05-04T07:58:10.712Z,36.8400
2023-05-04T07:59:12.956Z,36.8100
2023-05-04T08:00:15.249Z,36.8190
2023-05-04T08:01:17.493Z,36.8080
2023-05-04T08:02:17.604Z,36.8420
2023-05-04T08:03:19.785Z,36.8540
2023-05-04T08:04:21.962Z,36.8690
2023-05-04T08:05:24.208Z,36.8900
2023-05-04T08:06:26.441Z,36.8770
2023-05-04T08:07:28.696Z,36.8530
2023-05-04T08:08:30.912Z,36.8370
2023-05-04T08:09:33.132Z,36.8470
2023-05-04T08:10:35.393Z,36.9070
2023-05-04T08:11:37.739Z,36.9220
2023-05-04T08:12:39.889Z,36.9010
2023-05-04T08:13:39.979Z,36.8950
2023-05-04T08:14:42.191Z,36.9060
2023-05-04T08:15:44.556Z,36.9000
2023-05-04T08:16:46.616Z,36.9130
2023-05-04T08:17:48.849Z,36.9180
2023-05-04T08:18:51.059Z,36.9120
2023-05-04T08:19:53.290Z,36.9230
2023-05-04T08:20:55.656Z,36.9290
2023-05-04T08:21:57.748Z,36.9480
2023-05-04T08:22:59.962Z,36.9710
2023-05-04T08:24:02.127Z,36.9590
2023-05-04T08:26:00.279Z,37.0070
2023-05-04T08:27:07.706Z,37.0070
2023-05-04T08:28:04.416Z,37.0070
2023-05-04T08:29:06.631Z,36.9710
2023-05-04T08:30:08.554Z,37.0090
2023-05-04T08:31:10.733Z,36.9720
2023-05-04T08:32:12.860Z,36.6940
2023-05-04T08:33:15.094Z,36.7440
2023-05-04T08:34:17.279Z,37.0620
2023-05-04T08:35:19.505Z,37.3950
2023-05-04T08:36:21.846Z,37.6260
2023-05-04T08:37:23.930Z,37.8620
2023-05-04T08:38:26.121Z,38.0290
2023-05-04T08:39:28.354Z,38.2360
2023-05-04T08:40:28.432Z,38.3710
2023-05-04T08:41:30.623Z,38.5030
2023-05-04T08:42:32.860Z,38.5710
2023-05-04T08:43:35.093Z,38.7180
2023-05-04T08:44:37.325Z,38.8290
2023-05-04T08:45:39.576Z,38.9510
2023-05-04T08:46:41.735Z,39.0130
2023-05-04T08:47:43.993Z,39.1190
2023-05-04T08:48:46.261Z,39.1630
2023-05-04T08:49:48.511Z,39.2720
2023-05-04T08:50:50.772Z,39.4700
2023-05-04T08:51:50.921Z,39.5320
2023-05-04T08:52:53.154Z,39.5180
2023-05-04T08:53:55.405Z,39.4000
2023-05-04T08:54:57.713Z,39.2760
2023-05-04T08:55:59.868Z,39.1270
2023-05-04T08:57:02.126Z,39.2640
2023-05-04T08:58:04.356Z,39.3670
2023-05-04T08:59:06.593Z,39.4230
2023-05-04T09:00:08.876Z,39.4490
2023-05-04T09:01:11.161Z,39.4070
2023-05-04T09:02:13.339Z,39.1730
2023-05-04T09:03:15.484Z,39.2170
2023-05-04T09:04:17.532Z,39.1430
2023-05-04T09:05:19.652Z,39.1050
2023-05-04T09:06:21.791Z,39.1430
2023-05-04T09:07:23.931Z,39.2090
2023-05-04T09:08:26.010Z,39.0790
2023-05-04T09:09:28.027Z,39.0050
2023-05-04T09:10:30.063Z,38.9710
2023-05-04T09:11:32.174Z,38.9170
2023-05-04T09:12:34.428Z,38.9750
2023-05-04T09:13:36.570Z,38.9280
2023-05-04T09:14:38.808Z,39.0620
2023-05-04T09:15:41.229Z,39.1270
2023-05-04T09:16:43.374Z,39.2380
2023-05-04T09:17:56.974Z,39.2010
2023-05-04T09:18:45.654Z,39.0540
2023-05-04T09:19:47.909Z,39.0840
2023-05-04T09:20:50.192Z,39.1830
2023-05-04T09:21:52.432Z,39.2490
2023-05-04T09:22:54.740Z,39.0710
2023-05-04T09:23:57.007Z,39.0940
2023-05-04T09:24:59.175Z,39.1520
2023-05-04T09:26:01.403Z,39.1110
2023-05-04T09:27:03.660Z,39.1790
2023-05-04T09:28:03.757Z,39.1990
2023-05-04T09:29:05.982Z,39.1770
2023-05-04T09:30:08.223Z,39.0910
2023-05-04T09:31:10.611Z,39.2900
2023-05-04T09:32:12.717Z,39.3700
2023-05-04T09:33:15.014Z,39.5110
2023-05-04T09:34:17.209Z,39.5820
2023-05-04T09:35:32.070Z,39.5170
2023-05-04T09:36:19.517Z,39.4720
2023-05-04T09:37:21.716Z,39.5220
2023-05-04T09:38:24.026Z,39.5730
2023-05-04T09:39:26.224Z,39.6800
2023-05-04T09:40:28.482Z,39.6580
2023-05-04T09:41:30.734Z,39.5900
2023-05-04T09:42:32.965Z,39.6940
2023-05-04T09:43:35.226Z,39.8400
2023-05-04T09:44:37.448Z,39.9180
2023-05-04T09:45:39.702Z,39.9950
2023-05-04T09:46:39.828Z,39.9620
2023-05-04T09:47:42.074Z,39.8330
2023-05-04T09:48:44.310Z,39.8230
2023-05-04T09:49:46.541Z,39.8110
2023-05-04T09:50:48.772Z,39.7350
2023-05-04T09:51:50.975Z,39.7140
2023-05-04T09:52:53.176Z,39.6980
2023-05-04T09:53:55.356Z,39.6320
2023-05-04T09:54:57.524Z,39.5230
2023-05-04T09:56:02.546Z,39.5720
2023-05-04T09:57:01.951Z,39.6200
2023-05-04T09:58:04.144Z,39.5180
2023-05-04T09:59:06.329Z,39.4210
2023-05-04T10:00:08.524Z,39.3710
2023-05-04T10:01:10.725Z,39.3380
2023-05-04T10:02:21.953Z,39.2920
2023-05-04T10:03:13.003Z,39.4140
2023-05-04T10:04:15.251Z,39.4410
2023-05-04T10:05:17.518Z,39.5340
2023-05-04T10:06:19.635Z,39.6910
2023-05-04T10:07:21.853Z,39.6120
2023-05-04T10:08:24.121Z,39.6040
2023-05-04T10:09:26.421Z,39.6470
2023-05-04T10:10:28.646Z,39.5710
2023-05-04T10:11:30.920Z,39.4960
2023-05-04T10:12:33.161Z,39.5390
2023-05-04T10:13:33.248Z,39.5060
2023-05-04T10:14:35.524Z,39.3950
2023-05-04T10:15:37.735Z,39.4380
2023-05-04T10:16:39.973Z,39.4990
2023-05-04T10:17:42.308Z,39.5610
2023-05-04T10:18:44.562Z,39.5760
2023-05-04T10:19:46.884Z,39.6080
2023-05-04T10:20:49.143Z,39.5930
2023-05-04T10:21:51.458Z,39.5560
2023-05-04T10:22:53.748Z,39.5730
2023-05-04T10:23:56.025Z,39.5730
2023-05-04T10:24:58.331Z,39.5310
2023-05-04T10:26:00.595Z,39.5250
2023-05-04T10:27:00.754Z,39.4370
2023-05-04T10:28:03.022Z,39.3860
2023-05-04T10:29:05.320Z,39.3820
2023-05-04T10:30:07.622Z,39.5310
2023-05-04T10:31:09.910Z,39.4990
2023-05-04T10:32:12.149Z,39.6440
2023-05-04T10:33:14.477Z,39.5900
2023-05-04T10:34:16.704Z,39.4760
2023-05-04T10:35:19.000Z,39.3560
2023-05-04T10:36:21.259Z,39.3510
2023-05-04T10:37:23.494Z,39.2910
2023-05-04T10:38:25.748Z,39.1050
2023-05-04T10:39:25.887Z,38.9850
2023-05-04T10:40:28.199Z,39.1450
2023-05-04T10:41:30.453Z,39.4010
2023-05-04T10:42:32.734Z,39.3900
2023-05-04T10:43:35.023Z,39.4500
2023-05-04T10:44:37.282Z,39.4940
2023-05-04T10:45:14.567Z,39.5920
2023-05-04T10:46:16.334Z,39.6330
2023-05-04T10:47:18.506Z,39.6380
2023-05-04T10:48:20.728Z,39.6830
2023-05-04T10:49:22.900Z,39.6930
2023-05-04T10:50:25.145Z,39.8450
2023-05-04T10:51:32.969Z,39.8860
2023-05-04T10:52:29.648Z,39.9760
2023-05-04T10:53:31.895Z,39.7980
2023-05-04T10:54:34.162Z,39.8170
2023-05-04T10:55:34.257Z,39.8820
2023-05-04T10:56:36.533Z,39.9450
2023-05-04T10:57:38.781Z,39.8560
2023-05-04T10:58:41.050Z,39.7630
2023-05-04T10:59:43.294Z,39.6150
2023-05-04T11:00:45.561Z,39.4910
2023-05-04T11:01:47.829Z,39.6960
2023-05-04T11:02:50.284Z,39.6720
2023-05-04T11:03:52.404Z,39.7850
2023-05-04T11:04:52.434Z,39.7710
2023-05-04T11:05:54.893Z,39.8150
2023-05-04T11:06:56.970Z,39.8440
2023-05-04T11:08:00.489Z,39.7600
2023-05-04T11:09:01.497Z,39.7350
2023-05-04T11:10:03.736Z,39.6340
2023-05-04T11:11:06.045Z,39.5800
2023-05-04T11:12:08.406Z,39.7600
2023-05-04T11:13:10.570Z,39.8450
2023-05-04T11:14:10.649Z,39.7860
2023-05-04T11:15:12.833Z,39.6720
2023-05-04T11:16:15.023Z,39.5600
2023-05-04T11:17:27.543Z,39.5260
2023-05-04T11:18:19.397Z,39.5480
2023-05-04T11:19:21.632Z,39.4900
2023-05-04T11:20:23.823Z,39.6920
2023-05-04T11:21:26.061Z,39.7470
2023-05-04T11:22:26.258Z,39.7040
2023-05-04T11:23:28.340Z,39.7480
2023-05-04T11:24:30.525Z,39.6920
2023-05-04T11:25:32.752Z,39.6090
2023-05-04T11:26:34.956Z,39.5280
2023-05-04T11:27:37.201Z,39.3690
2023-05-04T11:28:39.317Z,39.3120
2023-05-04T11:29:41.521Z,39.2600
2023-05-04T11:30:43.751Z,39.2190
2023-05-04T11:31:46.035Z,39.5670
2023-05-04T11:32:48.322Z,39.5070
2023-05-04T11:33:50.562Z,39.5020
2023-05-04T11:34:52.832Z,39.4720
2023-05-04T11:35:52.923Z,39.5210
2023-05-04T11:36:55.207Z,39.4960
2023-05-04T11:37:57.626Z,39.3640
2023-05-04T11:38:59.748Z,39.3750
2023-05-04T11:40:02.034Z,39.2180
2023-05-04T11:41:04.264Z,39.1620
2023-05-04T11:42:06.536Z,39.1510
2023-05-04T11:43:08.834Z,39.0870
2023-05-04T11:44:08.904Z,39.1230
2023-05-04T11:45:11.170Z,39.3590
2023-05-04T11:46:13.501Z,39.3040
2023-05-04T11:47:15.755Z,39.3990
2023-05-04T11:48:18.954Z,39.4160
2023-05-04T11:49:20.242Z,39.2960
2023-05-04T11:50:22.553Z,39.2250
2023-05-04T11:51:24.783Z,39.2170
2023-05-04T11:52:24.915Z,39.1690
2023-05-04T11:53:27.226Z,39.0820
2023-05-04T11:54:30.518Z,39.1350
2023-05-04T11:55:31.788Z,39.1410
2023-05-04T11:56:34.054Z,39.0250
2023-05-04T11:57:36.320Z,38.9830
2023-05-04T11:58:36.488Z,38.9150
2023-05-04T11:59:38.734Z,38.9290
2023-05-04T12:00:41.031Z,38.9070
2023-05-04T12:01:43.243Z,38.9450
2023-05-04T12:02:45.521Z,39.0280
2023-05-04T12:03:53.684Z,38.9680
2023-05-04T12:04:49.998Z,38.9560
2023-05-04T12:05:52.431Z,38.9370
2023-05-04T12:06:54.481Z,38.9560
2023-05-04T12:07:54.584Z,38.8970
2023-05-04T12:08:56.844Z,38.8980
2023-05-04T12:09:59.011Z,38.9420
2023-05-04T12:11:01.249Z,38.9460
2023-05-04T12:12:03.471Z,38.9630
2023-05-04T12:13:05.696Z,38.9030
2023-05-04T12:14:07.906Z,38.8870
2023-05-04T12:15:10.023Z,38.8090
2023-05-04T12:16:12.209Z,38.6830
2023-05-04T12:17:14.392Z,38.6410
2023-05-04T12:18:16.565Z,38.6620
2023-05-04T12:19:18.818Z,38.6890
2023-05-04T12:20:20.994Z,38.7150
2023-05-04T12:21:23.262Z,38.6610
2023-05-04T12:22:25.416Z,38.6320
2023-05-04T12:23:27.633Z,38.6930
2023-05-04T12:24:29.983Z,38.6510
2023-05-04T12:25:29.914Z,38.7220
2023-05-04T12:26:32.076Z,38.6660
2023-05-04T12:27:34.316Z,38.7250
2023-05-04T12:28:36.490Z,38.6560
2023-05-04T12:29:38.711Z,38.5900
2023-05-04T12:30:40.890Z,38.5520
2023-05-04T12:31:43.186Z,38.5420
2023-05-04T12:32:45.350Z,38.5490
2023-05-04T12:33:47.546Z,38.5490
2023-05-04T12:34:49.749Z,38.5930
2023-05-04T12:35:51.951Z,38.6190
2023-05-04T12:36:54.192Z,38.5650
2023-05-04T12:37:56.351Z,38.4700